sensor_id;sensor_type;location;lat;lon;timestamp;temperature;humidity
8152;DHT22;4117;53.622;9.958;2023-02-07T00:00:45;-2.00;30.80
8152;DHT22;4117;53.622;9.958;2023-02-07T00:03:12;-2.00;29.50
8152;DHT22;4117;53.622;9.958;2023-02-07T00:05:38;-2.10;29.50
8152;DHT22;4117;53.622;9.958;2023-02-07T00:08:06;-2.00;29.50
8152;DHT22;4117;53.622;9.958;2023-02-07T00:10:35;-2.10;29.90
8152;DHT22;4117;53.622;9.958;2023-02-07T00:13:02;-2.10;29.40
8152;DHT22;4117;53.622;9.958;2023-02-07T00:15:29;-2.10;29.40
8152;DHT22;4117;53.622;9.958;2023-02-07T00:17:56;-2.10;30.00
8152;DHT22;4117;53.622;9.958;2023-02-07T00:20:24;-2.10;31.80
8152;DHT22;4117;53.622;9.958;2023-02-07T00:22:50;-2.10;30.50
8152;DHT22;4117;53.622;9.958;2023-02-07T00:25:20;-2.10;32.50
8152;DHT22;4117;53.622;9.958;2023-02-07T00:27:49;-2.10;33.20
8152;DHT22;4117;53.622;9.958;2023-02-07T00:30:16;-2.10;34.10
8152;DHT22;4117;53.622;9.958;2023-02-07T00:32:43;-2.20;32.60
8152;DHT22;4117;53.622;9.958;2023-02-07T00:35:10;-2.20;29.90
8152;DHT22;4117;53.622;9.958;2023-02-07T00:37:37;-2.20;29.80
8152;DHT22;4117;53.622;9.958;2023-02-07T00:40:05;-2.20;32.60
8152;DHT22;4117;53.622;9.958;2023-02-07T00:42:32;-2.20;31.30
8152;DHT22;4117;53.622;9.958;2023-02-07T00:45:00;-2.20;32.10
8152;DHT22;4117;53.622;9.958;2023-02-07T00:47:27;-2.20;31.50
8152;DHT22;4117;53.622;9.958;2023-02-07T00:49:55;-2.20;32.10
8152;DHT22;4117;53.622;9.958;2023-02-07T00:52:22;-2.20;31.20
8152;DHT22;4117;53.622;9.958;2023-02-07T00:54:49;-2.20;33.60
8152;DHT22;4117;53.622;9.958;2023-02-07T00:57:16;-2.20;32.60
8152;DHT22;4117;53.622;9.958;2023-02-07T00:59:43;-2.30;30.70
8152;DHT22;4117;53.622;9.958;2023-02-07T01:02:11;-2.20;32.40
8152;DHT22;4117;53.622;9.958;2023-02-07T01:04:38;-2.20;33.10
8152;DHT22;4117;53.622;9.958;2023-02-07T01:07:05;-2.20;32.10
8152;DHT22;4117;53.622;9.958;2023-02-07T01:09:32;-2.30;29.70
8152;DHT22;4117;53.622;9.958;2023-02-07T01:11:59;-2.30;29.40
8152;DHT22;4117;53.622;9.958;2023-02-07T01:14:26;-2.40;29.30
8152;DHT22;4117;53.622;9.958;2023-02-07T01:16:53;-2.40;30.70
8152;DHT22;4117;53.622;9.958;2023-02-07T01:19:21;-2.30;31.10
8152;DHT22;4117;53.622;9.958;2023-02-07T01:21:48;-2.30;34.20
8152;DHT22;4117;53.622;9.958;2023-02-07T01:24:15;-2.30;31.20
8152;DHT22;4117;53.622;9.958;2023-02-07T01:26:42;-2.40;29.50
8152;DHT22;4117;53.622;9.958;2023-02-07T01:29:13;-2.40;31.90
8152;DHT22;4117;53.622;9.958;2023-02-07T01:31:40;-2.30;30.40
8152;DHT22;4117;53.622;9.958;2023-02-07T01:34:10;-2.40;29.70
8152;DHT22;4117;53.622;9.958;2023-02-07T01:36:40;-2.40;32.70
8152;DHT22;4117;53.622;9.958;2023-02-07T01:39:07;-2.40;32.60
8152;DHT22;4117;53.622;9.958;2023-02-07T01:41:34;-2.40;31.90
8152;DHT22;4117;53.622;9.958;2023-02-07T01:44:03;-2.40;30.30
8152;DHT22;4117;53.622;9.958;2023-02-07T01:46:32;-2.40;32.00
8152;DHT22;4117;53.622;9.958;2023-02-07T01:49:11;-2.40;31.90
8152;DHT22;4117;53.622;9.958;2023-02-07T01:51:44;-2.50;31.20
8152;DHT22;4117;53.622;9.958;2023-02-07T01:54:12;-2.50;31.90
8152;DHT22;4117;53.622;9.958;2023-02-07T01:56:44;-2.50;31.90
8152;DHT22;4117;53.622;9.958;2023-02-07T01:59:11;-2.50;30.80
8152;DHT22;4117;53.622;9.958;2023-02-07T02:01:39;-2.50;29.70
8152;DHT22;4117;53.622;9.958;2023-02-07T02:04:06;-2.60;29.30
8152;DHT22;4117;53.622;9.958;2023-02-07T02:06:33;-2.60;32.20
8152;DHT22;4117;53.622;9.958;2023-02-07T02:09:09;-2.60;30.00
8152;DHT22;4117;53.622;9.958;2023-02-07T02:12:03;-2.50;30.60
8152;DHT22;4117;53.622;9.958;2023-02-07T02:14:51;-2.60;32.40
8152;DHT22;4117;53.622;9.958;2023-02-07T02:20:39;-2.60;29.10
8152;DHT22;4117;53.622;9.958;2023-02-07T02:23:19;-2.60;29.10
8152;DHT22;4117;53.622;9.958;2023-02-07T02:29:07;-2.60;31.00
8152;DHT22;4117;53.622;9.958;2023-02-07T02:32:04;-2.70;29.60
8152;DHT22;4117;53.622;9.958;2023-02-07T02:34:41;-2.70;30.40
8152;DHT22;4117;53.622;9.958;2023-02-07T02:37:13;-2.60;32.00
8152;DHT22;4117;53.622;9.958;2023-02-07T02:39:47;-2.70;29.70
8152;DHT22;4117;53.622;9.958;2023-02-07T02:42:21;-2.80;29.00
8152;DHT22;4117;53.622;9.958;2023-02-07T02:44:54;-2.80;31.50
8152;DHT22;4117;53.622;9.958;2023-02-07T02:47:23;-2.80;29.50
8152;DHT22;4117;53.622;9.958;2023-02-07T02:49:53;-2.70;30.60
8152;DHT22;4117;53.622;9.958;2023-02-07T02:52:20;-2.80;29.00
8152;DHT22;4117;53.622;9.958;2023-02-07T02:54:47;-2.80;29.50
8152;DHT22;4117;53.622;9.958;2023-02-07T02:57:24;-2.80;29.50
8152;DHT22;4117;53.622;9.958;2023-02-07T03:03:07;-2.80;29.80
8152;DHT22;4117;53.622;9.958;2023-02-07T03:05:52;-2.80;30.80
8152;DHT22;4117;53.622;9.958;2023-02-07T03:08:30;-2.80;30.60
8152;DHT22;4117;53.622;9.958;2023-02-07T03:11:06;-2.80;30.30
8152;DHT22;4117;53.622;9.958;2023-02-07T03:13:44;-2.80;30.00
8152;DHT22;4117;53.622;9.958;2023-02-07T03:16:18;-2.80;32.30
8152;DHT22;4117;53.622;9.958;2023-02-07T03:18:50;-2.90;33.50
8152;DHT22;4117;53.622;9.958;2023-02-07T03:21:24;-2.90;29.00
8152;DHT22;4117;53.622;9.958;2023-02-07T03:23:52;-2.90;29.10
8152;DHT22;4117;53.622;9.958;2023-02-07T03:26:22;-2.90;30.50
8152;DHT22;4117;53.622;9.958;2023-02-07T03:28:52;-3.00;28.20
8152;DHT22;4117;53.622;9.958;2023-02-07T03:31:22;-3.10;28.80
8152;DHT22;4117;53.622;9.958;2023-02-07T03:33:53;-3.00;30.00
8152;DHT22;4117;53.622;9.958;2023-02-07T03:36:27;-3.00;29.60
8152;DHT22;4117;53.622;9.958;2023-02-07T03:38:55;-3.00;29.60
8152;DHT22;4117;53.622;9.958;2023-02-07T03:41:27;-3.10;28.80
8152;DHT22;4117;53.622;9.958;2023-02-07T03:43:56;-3.10;29.20
8152;DHT22;4117;53.622;9.958;2023-02-07T03:46:25;-3.00;30.80
8152;DHT22;4117;53.622;9.958;2023-02-07T03:48:52;-3.00;31.10
8152;DHT22;4117;53.622;9.958;2023-02-07T03:51:19;-3.00;30.40
8152;DHT22;4117;53.622;9.958;2023-02-07T03:53:47;-3.10;28.80
8152;DHT22;4117;53.622;9.958;2023-02-07T03:56:14;-3.10;28.80
8152;DHT22;4117;53.622;9.958;2023-02-07T03:58:41;-3.10;29.10
8152;DHT22;4117;53.622;9.958;2023-02-07T04:01:08;-3.10;29.20
8152;DHT22;4117;53.622;9.958;2023-02-07T04:03:34;-3.10;28.90
8152;DHT22;4117;53.622;9.958;2023-02-07T04:06:01;-3.20;28.70
8152;DHT22;4117;53.622;9.958;2023-02-07T04:08:28;-3.10;29.00
8152;DHT22;4117;53.622;9.958;2023-02-07T04:10:57;-3.10;30.50
8152;DHT22;4117;53.622;9.958;2023-02-07T04:13:25;-3.10;28.80
8152;DHT22;4117;53.622;9.958;2023-02-07T04:15:51;-3.10;30.40
8152;DHT22;4117;53.622;9.958;2023-02-07T04:18:18;-3.10;28.80
8152;DHT22;4117;53.622;9.958;2023-02-07T04:20:45;-3.10;29.10
8152;DHT22;4117;53.622;9.958;2023-02-07T04:23:13;-3.20;28.80
8152;DHT22;4117;53.622;9.958;2023-02-07T04:25:40;-3.20;28.80
8152;DHT22;4117;53.622;9.958;2023-02-07T04:28:08;-3.20;28.80
8152;DHT22;4117;53.622;9.958;2023-02-07T04:30:35;-3.20;28.70
8152;DHT22;4117;53.622;9.958;2023-02-07T04:33:02;-3.20;28.70
8152;DHT22;4117;53.622;9.958;2023-02-07T04:35:29;-3.20;28.70
8152;DHT22;4117;53.622;9.958;2023-02-07T04:37:56;-3.20;28.80
8152;DHT22;4117;53.622;9.958;2023-02-07T04:40:23;-3.30;28.70
8152;DHT22;4117;53.622;9.958;2023-02-07T04:42:50;-3.30;28.70
8152;DHT22;4117;53.622;9.958;2023-02-07T04:45:18;-3.40;28.60
8152;DHT22;4117;53.622;9.958;2023-02-07T04:47:45;-3.30;28.70
8152;DHT22;4117;53.622;9.958;2023-02-07T04:50:12;-3.30;28.70
8152;DHT22;4117;53.622;9.958;2023-02-07T04:52:39;-3.30;28.70
8152;DHT22;4117;53.622;9.958;2023-02-07T04:55:07;-3.30;30.20
8152;DHT22;4117;53.622;9.958;2023-02-07T04:57:34;-3.30;31.00
8152;DHT22;4117;53.622;9.958;2023-02-07T05:00:01;-3.20;33.60
8152;DHT22;4117;53.622;9.958;2023-02-07T05:02:30;-3.20;32.70
8152;DHT22;4117;53.622;9.958;2023-02-07T05:04:57;-3.20;29.90
8152;DHT22;4117;53.622;9.958;2023-02-07T05:07:23;-3.30;28.70
8152;DHT22;4117;53.622;9.958;2023-02-07T05:09:50;-3.30;28.70
8152;DHT22;4117;53.622;9.958;2023-02-07T05:12:18;-3.30;28.00
8152;DHT22;4117;53.622;9.958;2023-02-07T05:14:45;-3.40;28.60
8152;DHT22;4117;53.622;9.958;2023-02-07T05:17:11;-3.40;29.30
8152;DHT22;4117;53.622;9.958;2023-02-07T05:19:40;-3.40;28.60
8152;DHT22;4117;53.622;9.958;2023-02-07T05:22:07;-3.40;28.80
8152;DHT22;4117;53.622;9.958;2023-02-07T05:24:34;-3.30;29.20
8152;DHT22;4117;53.622;9.958;2023-02-07T05:27:00;-3.40;30.00
8152;DHT22;4117;53.622;9.958;2023-02-07T05:29:27;-3.40;30.00
8152;DHT22;4117;53.622;9.958;2023-02-07T05:31:54;-3.50;28.60
8152;DHT22;4117;53.622;9.958;2023-02-07T05:34:40;-3.60;28.50
8152;DHT22;4117;53.622;9.958;2023-02-07T05:37:07;-3.50;29.30
8152;DHT22;4117;53.622;9.958;2023-02-07T05:39:34;-3.40;28.70
8152;DHT22;4117;53.622;9.958;2023-02-07T05:42:01;-3.50;25.90
8152;DHT22;4117;53.622;9.958;2023-02-07T05:44:28;-3.60;28.50
8152;DHT22;4117;53.622;9.958;2023-02-07T05:46:55;-3.50;28.60
8152;DHT22;4117;53.622;9.958;2023-02-07T05:49:21;-3.50;28.50
8152;DHT22;4117;53.622;9.958;2023-02-07T05:51:50;-3.60;29.10
8152;DHT22;4117;53.622;9.958;2023-02-07T05:54:17;-3.50;29.20
8152;DHT22;4117;53.622;9.958;2023-02-07T05:56:44;-3.50;30.10
8152;DHT22;4117;53.622;9.958;2023-02-07T05:59:11;-3.60;27.80
8152;DHT22;4117;53.622;9.958;2023-02-07T06:01:38;-3.70;28.30
8152;DHT22;4117;53.622;9.958;2023-02-07T06:04:04;-3.60;28.60
8152;DHT22;4117;53.622;9.958;2023-02-07T06:06:31;-3.50;30.10
8152;DHT22;4117;53.622;9.958;2023-02-07T06:09:00;-3.60;28.50
8152;DHT22;4117;53.622;9.958;2023-02-07T06:11:27;-3.50;29.10
8152;DHT22;4117;53.622;9.958;2023-02-07T06:13:53;-3.50;29.00
8152;DHT22;4117;53.622;9.958;2023-02-07T06:16:20;-3.60;28.50
8152;DHT22;4117;53.622;9.958;2023-02-07T06:18:47;-3.60;29.10
8152;DHT22;4117;53.622;9.958;2023-02-07T06:21:14;-3.70;28.40
8152;DHT22;4117;53.622;9.958;2023-02-07T06:23:41;-3.80;26.00
8152;DHT22;4117;53.622;9.958;2023-02-07T06:26:10;-3.80;28.30
8152;DHT22;4117;53.622;9.958;2023-02-07T06:28:37;-3.70;28.50
8152;DHT22;4117;53.622;9.958;2023-02-07T06:31:04;-3.70;29.00
8152;DHT22;4117;53.622;9.958;2023-02-07T06:33:31;-3.80;28.40
8152;DHT22;4117;53.622;9.958;2023-02-07T06:35:58;-3.80;27.20
8152;DHT22;4117;53.622;9.958;2023-02-07T06:38:25;-3.80;28.40
8152;DHT22;4117;53.622;9.958;2023-02-07T06:40:52;-3.80;28.40
8152;DHT22;4117;53.622;9.958;2023-02-07T06:43:20;-3.80;28.40
8152;DHT22;4117;53.622;9.958;2023-02-07T06:45:47;-3.80;29.50
8152;DHT22;4117;53.622;9.958;2023-02-07T06:48:14;-3.80;28.40
8152;DHT22;4117;53.622;9.958;2023-02-07T06:50:41;-3.70;28.50
8152;DHT22;4117;53.622;9.958;2023-02-07T06:53:08;-3.80;29.00
8152;DHT22;4117;53.622;9.958;2023-02-07T06:55:36;-3.80;28.40
8152;DHT22;4117;53.622;9.958;2023-02-07T06:58:03;-3.80;27.40
8152;DHT22;4117;53.622;9.958;2023-02-07T07:00:32;-3.90;28.00
8152;DHT22;4117;53.622;9.958;2023-02-07T07:02:59;-3.90;28.30
8152;DHT22;4117;53.622;9.958;2023-02-07T07:05:26;-3.80;28.40
8152;DHT22;4117;53.622;9.958;2023-02-07T07:07:53;-3.90;28.30
8152;DHT22;4117;53.622;9.958;2023-02-07T07:10:21;-3.90;28.30
8152;DHT22;4117;53.622;9.958;2023-02-07T07:12:48;-3.80;29.20
8152;DHT22;4117;53.622;9.958;2023-02-07T07:15:15;-3.90;28.30
8152;DHT22;4117;53.622;9.958;2023-02-07T07:17:43;-3.90;28.30
8152;DHT22;4117;53.622;9.958;2023-02-07T07:20:11;-3.80;28.40
8152;DHT22;4117;53.622;9.958;2023-02-07T07:22:38;-3.80;29.30
8152;DHT22;4117;53.622;9.958;2023-02-07T07:25:05;-3.90;28.20
8152;DHT22;4117;53.622;9.958;2023-02-07T07:27:33;-3.90;28.20
8152;DHT22;4117;53.622;9.958;2023-02-07T07:30:00;-3.80;28.40
8152;DHT22;4117;53.622;9.958;2023-02-07T07:32:27;-3.90;28.30
8152;DHT22;4117;53.622;9.958;2023-02-07T07:34:55;-3.90;28.30
8152;DHT22;4117;53.622;9.958;2023-02-07T07:37:22;-3.90;28.30
8152;DHT22;4117;53.622;9.958;2023-02-07T07:39:49;-3.90;28.30
8152;DHT22;4117;53.622;9.958;2023-02-07T07:42:17;-3.90;28.30
8152;DHT22;4117;53.622;9.958;2023-02-07T07:44:43;-3.80;29.20
8152;DHT22;4117;53.622;9.958;2023-02-07T07:47:10;-3.80;28.50
8152;DHT22;4117;53.622;9.958;2023-02-07T07:49:38;-3.70;28.50
8152;DHT22;4117;53.622;9.958;2023-02-07T07:52:06;-3.70;28.50
8152;DHT22;4117;53.622;9.958;2023-02-07T07:54:33;-3.60;31.20
8152;DHT22;4117;53.622;9.958;2023-02-07T07:57:00;-3.50;29.80
8152;DHT22;4117;53.622;9.958;2023-02-07T07:59:27;-3.60;29.90
8152;DHT22;4117;53.622;9.958;2023-02-07T08:01:54;-3.50;29.80
8152;DHT22;4117;53.622;9.958;2023-02-07T08:04:21;-3.50;31.60
8152;DHT22;4117;53.622;9.958;2023-02-07T08:06:48;-3.40;33.60
8152;DHT22;4117;53.622;9.958;2023-02-07T08:09:16;-3.40;37.20
8152;DHT22;4117;53.622;9.958;2023-02-07T08:11:43;-3.30;34.50
8152;DHT22;4117;53.622;9.958;2023-02-07T08:14:10;-3.30;34.30
8152;DHT22;4117;53.622;9.958;2023-02-07T08:16:37;-3.20;31.40
8152;DHT22;4117;53.622;9.958;2023-02-07T08:19:04;-3.20;35.40
8152;DHT22;4117;53.622;9.958;2023-02-07T08:21:31;-3.10;37.10
8152;DHT22;4117;53.622;9.958;2023-02-07T08:23:58;-3.00;38.00
8152;DHT22;4117;53.622;9.958;2023-02-07T08:26:26;-3.00;40.70
8152;DHT22;4117;53.622;9.958;2023-02-07T08:28:53;-2.90;37.20
8152;DHT22;4117;53.622;9.958;2023-02-07T08:31:20;-2.80;40.40
8152;DHT22;4117;53.622;9.958;2023-02-07T08:33:47;-2.90;37.50
8152;DHT22;4117;53.622;9.958;2023-02-07T08:36:14;-2.90;37.50
8152;DHT22;4117;53.622;9.958;2023-02-07T08:38:41;-2.70;41.00
8152;DHT22;4117;53.622;9.958;2023-02-07T08:41:08;-2.70;46.30
8152;DHT22;4117;53.622;9.958;2023-02-07T08:43:37;-2.60;45.60
8152;DHT22;4117;53.622;9.958;2023-02-07T08:46:04;-2.60;43.30
8152;DHT22;4117;53.622;9.958;2023-02-07T08:48:31;-2.50;43.10
8152;DHT22;4117;53.622;9.958;2023-02-07T08:51:02;-2.50;43.70
8152;DHT22;4117;53.622;9.958;2023-02-07T08:53:29;-2.40;45.90
8152;DHT22;4117;53.622;9.958;2023-02-07T08:55:56;-2.40;47.00
8152;DHT22;4117;53.622;9.958;2023-02-07T08:58:23;-2.30;47.50
8152;DHT22;4117;53.622;9.958;2023-02-07T09:00:51;-2.30;52.30
8152;DHT22;4117;53.622;9.958;2023-02-07T09:03:18;-2.20;52.40
8152;DHT22;4117;53.622;9.958;2023-02-07T09:05:45;-2.20;53.10
8152;DHT22;4117;53.622;9.958;2023-02-07T09:08:12;-2.20;59.00
8152;DHT22;4117;53.622;9.958;2023-02-07T09:10:38;-2.10;59.80
8152;DHT22;4117;53.622;9.958;2023-02-07T09:13:05;-2.00;63.40
8152;DHT22;4117;53.622;9.958;2023-02-07T09:15:32;-1.90;65.40
8152;DHT22;4117;53.622;9.958;2023-02-07T09:18:01;-1.90;65.50
8152;DHT22;4117;53.622;9.958;2023-02-07T09:20:27;-1.80;67.80
8152;DHT22;4117;53.622;9.958;2023-02-07T09:22:54;-1.80;72.50
8152;DHT22;4117;53.622;9.958;2023-02-07T09:25:36;-1.70;77.60
8152;DHT22;4117;53.622;9.958;2023-02-07T09:28:04;-1.60;78.50
8152;DHT22;4117;53.622;9.958;2023-02-07T09:30:31;-1.50;78.70
8152;DHT22;4117;53.622;9.958;2023-02-07T09:32:58;-1.50;78.80
8152;DHT22;4117;53.622;9.958;2023-02-07T09:35:26;-1.40;78.70
8152;DHT22;4117;53.622;9.958;2023-02-07T09:37:53;-1.40;76.70
8152;DHT22;4117;53.622;9.958;2023-02-07T09:40:21;-1.40;78.10
8152;DHT22;4117;53.622;9.958;2023-02-07T09:42:55;-1.30;79.30
8152;DHT22;4117;53.622;9.958;2023-02-07T09:45:25;-1.20;80.00
8152;DHT22;4117;53.622;9.958;2023-02-07T09:47:59;-1.20;74.90
8152;DHT22;4117;53.622;9.958;2023-02-07T09:50:31;-1.20;74.40
8152;DHT22;4117;53.622;9.958;2023-02-07T09:53:03;-1.10;78.10
8152;DHT22;4117;53.622;9.958;2023-02-07T09:55:39;-1.00;71.40
8152;DHT22;4117;53.622;9.958;2023-02-07T09:58:12;-1.00;70.10
8152;DHT22;4117;53.622;9.958;2023-02-07T10:00:40;-0.90;67.70
8152;DHT22;4117;53.622;9.958;2023-02-07T10:03:12;-0.90;66.40
8152;DHT22;4117;53.622;9.958;2023-02-07T10:05:44;-0.80;72.50
8152;DHT22;4117;53.622;9.958;2023-02-07T10:08:15;-0.70;66.60
8152;DHT22;4117;53.622;9.958;2023-02-07T10:10:49;-0.70;61.90
8152;DHT22;4117;53.622;9.958;2023-02-07T10:13:28;-0.60;63.80
8152;DHT22;4117;53.622;9.958;2023-02-07T10:16:11;-0.60;56.50
8152;DHT22;4117;53.622;9.958;2023-02-07T10:18:46;-0.50;53.50
8152;DHT22;4117;53.622;9.958;2023-02-07T10:21:24;-0.50;50.90
8152;DHT22;4117;53.622;9.958;2023-02-07T10:24:20;-0.50;54.50
8152;DHT22;4117;53.622;9.958;2023-02-07T10:26:53;-0.40;53.50
8152;DHT22;4117;53.622;9.958;2023-02-07T10:29:48;-0.40;50.10
8152;DHT22;4117;53.622;9.958;2023-02-07T10:32:21;-0.30;47.90
8152;DHT22;4117;53.622;9.958;2023-02-07T10:34:51;-0.20;50.10
8152;DHT22;4117;53.622;9.958;2023-02-07T10:37:22;-0.20;43.00
8152;DHT22;4117;53.622;9.958;2023-02-07T10:39:56;-0.20;43.20
8152;DHT22;4117;53.622;9.958;2023-02-07T10:42:26;-0.30;42.80
8152;DHT22;4117;53.622;9.958;2023-02-07T10:44:54;-0.10;42.90
8152;DHT22;4117;53.622;9.958;2023-02-07T10:47:21;0.00;37.60
8152;DHT22;4117;53.622;9.958;2023-02-07T10:49:52;0.00;38.60
8152;DHT22;4117;53.622;9.958;2023-02-07T10:52:34;0.00;39.20
8152;DHT22;4117;53.622;9.958;2023-02-07T10:55:07;0.00;36.00
8152;DHT22;4117;53.622;9.958;2023-02-07T10:57:34;0.10;39.10
8152;DHT22;4117;53.622;9.958;2023-02-07T11:00:05;0.00;34.40
8152;DHT22;4117;53.622;9.958;2023-02-07T11:02:59;0.00;31.00
8152;DHT22;4117;53.622;9.958;2023-02-07T11:05:36;0.10;34.10
8152;DHT22;4117;53.622;9.958;2023-02-07T11:08:20;0.20;31.50
8152;DHT22;4117;53.622;9.958;2023-02-07T11:10:48;0.10;35.90
8152;DHT22;4117;53.622;9.958;2023-02-07T11:13:17;0.20;32.60
8152;DHT22;4117;53.622;9.958;2023-02-07T11:15:48;0.30;34.90
8152;DHT22;4117;53.622;9.958;2023-02-07T11:18:26;0.30;32.90
8152;DHT22;4117;53.622;9.958;2023-02-07T11:20:54;0.20;31.00
8152;DHT22;4117;53.622;9.958;2023-02-07T11:23:23;0.30;29.10
8152;DHT22;4117;53.622;9.958;2023-02-07T11:25:53;0.40;29.50
8152;DHT22;4117;53.622;9.958;2023-02-07T11:28:25;0.40;31.10
8152;DHT22;4117;53.622;9.958;2023-02-07T11:30:55;0.50;31.20
8152;DHT22;4117;53.622;9.958;2023-02-07T11:33:26;0.50;26.60
8152;DHT22;4117;53.622;9.958;2023-02-07T11:36:08;0.50;26.00
8152;DHT22;4117;53.622;9.958;2023-02-07T11:38:40;0.50;25.50
8152;DHT22;4117;53.622;9.958;2023-02-07T11:41:15;0.50;26.70
8152;DHT22;4117;53.622;9.958;2023-02-07T11:43:51;0.50;27.50
8152;DHT22;4117;53.622;9.958;2023-02-07T11:46:21;0.50;25.30
8152;DHT22;4117;53.622;9.958;2023-02-07T11:48:52;0.60;26.60
8152;DHT22;4117;53.622;9.958;2023-02-07T11:51:21;0.60;20.90
8152;DHT22;4117;53.622;9.958;2023-02-07T11:53:53;0.70;21.30
8152;DHT22;4117;53.622;9.958;2023-02-07T11:56:23;0.70;22.00
8152;DHT22;4117;53.622;9.958;2023-02-07T11:58:52;0.70;21.30
8152;DHT22;4117;53.622;9.958;2023-02-07T12:01:24;0.80;24.10
8152;DHT22;4117;53.622;9.958;2023-02-07T12:03:54;1.00;22.60
8152;DHT22;4117;53.622;9.958;2023-02-07T12:06:28;1.20;21.40
8152;DHT22;4117;53.622;9.958;2023-02-07T12:09:00;1.20;18.50
8152;DHT22;4117;53.622;9.958;2023-02-07T12:11:33;1.40;21.70
8152;DHT22;4117;53.622;9.958;2023-02-07T12:14:08;1.50;16.70
8152;DHT22;4117;53.622;9.958;2023-02-07T12:16:42;1.60;20.90
8152;DHT22;4117;53.622;9.958;2023-02-07T12:19:16;1.60;17.00
8152;DHT22;4117;53.622;9.958;2023-02-07T12:21:54;1.80;12.20
8152;DHT22;4117;53.622;9.958;2023-02-07T12:24:26;1.60;11.50
8152;DHT22;4117;53.622;9.958;2023-02-07T12:26:58;1.70;13.00
8152;DHT22;4117;53.622;9.958;2023-02-07T12:29:36;1.80;11.70
8152;DHT22;4117;53.622;9.958;2023-02-07T12:32:13;2.00;12.40
8152;DHT22;4117;53.622;9.958;2023-02-07T12:34:47;2.10;11.80
8152;DHT22;4117;53.622;9.958;2023-02-07T12:37:24;2.10;11.10
8152;DHT22;4117;53.622;9.958;2023-02-07T12:39:58;2.20;8.80
8152;DHT22;4117;53.622;9.958;2023-02-07T12:42:32;2.20;7.70
8152;DHT22;4117;53.622;9.958;2023-02-07T12:45:05;2.20;8.10
8152;DHT22;4117;53.622;9.958;2023-02-07T12:47:45;2.10;2.80
8152;DHT22;4117;53.622;9.958;2023-02-07T12:50:22;2.20;5.80
8152;DHT22;4117;53.622;9.958;2023-02-07T12:52:59;2.20;4.70
8152;DHT22;4117;53.622;9.958;2023-02-07T12:55:42;2.10;3.60
8152;DHT22;4117;53.622;9.958;2023-02-07T12:58:31;2.20;4.70
8152;DHT22;4117;53.622;9.958;2023-02-07T13:01:06;2.10;6.70
8152;DHT22;4117;53.622;9.958;2023-02-07T13:06:37;1.90;5.00
8152;DHT22;4117;53.622;9.958;2023-02-07T13:09:13;1.90;5.20
8152;DHT22;4117;53.622;9.958;2023-02-07T13:11:51;1.90;4.30
8152;DHT22;4117;53.622;9.958;2023-02-07T13:14:30;1.80;4.70
8152;DHT22;4117;53.622;9.958;2023-02-07T13:17:24;1.80;3.80
8152;DHT22;4117;53.622;9.958;2023-02-07T13:19:57;1.80;8.30
8152;DHT22;4117;53.622;9.958;2023-02-07T13:22:29;1.90;6.50
8152;DHT22;4117;53.622;9.958;2023-02-07T13:24:59;1.90;5.40
8152;DHT22;4117;53.622;9.958;2023-02-07T13:27:28;1.90;4.60
8152;DHT22;4117;53.622;9.958;2023-02-07T13:29:56;1.90;4.60
8152;DHT22;4117;53.622;9.958;2023-02-07T13:32:26;1.90;5.40
8152;DHT22;4117;53.622;9.958;2023-02-07T13:34:56;1.90;6.40
8152;DHT22;4117;53.622;9.958;2023-02-07T13:37:33;1.90;3.60
8152;DHT22;4117;53.622;9.958;2023-02-07T13:40:16;1.80;6.00
8152;DHT22;4117;53.622;9.958;2023-02-07T13:42:50;1.80;3.80
8152;DHT22;4117;53.622;9.958;2023-02-07T13:45:26;1.80;1.10
8152;DHT22;4117;53.622;9.958;2023-02-07T13:48:01;1.80;5.30
8152;DHT22;4117;53.622;9.958;2023-02-07T13:50:39;1.80;4.10
8152;DHT22;4117;53.622;9.958;2023-02-07T13:53:20;1.80;4.30
8152;DHT22;4117;53.622;9.958;2023-02-07T13:55:51;1.80;5.00
8152;DHT22;4117;53.622;9.958;2023-02-07T13:58:51;1.80;5.90
8152;DHT22;4117;53.622;9.958;2023-02-07T14:01:35;1.80;3.30
8152;DHT22;4117;53.622;9.958;2023-02-07T14:04:05;1.70;4.00
8152;DHT22;4117;53.622;9.958;2023-02-07T14:06:35;1.70;4.60
8152;DHT22;4117;53.622;9.958;2023-02-07T14:09:06;1.80;2.60
8152;DHT22;4117;53.622;9.958;2023-02-07T14:11:39;1.80;6.80
8152;DHT22;4117;53.622;9.958;2023-02-07T14:14:16;1.80;6.20
8152;DHT22;4117;53.622;9.958;2023-02-07T14:16:50;1.80;5.20
8152;DHT22;4117;53.622;9.958;2023-02-07T14:19:54;1.80;6.80
8152;DHT22;4117;53.622;9.958;2023-02-07T14:22:24;1.80;3.60
8152;DHT22;4117;53.622;9.958;2023-02-07T14:25:22;1.80;5.30
8152;DHT22;4117;53.622;9.958;2023-02-07T14:28:14;1.80;4.60
8152;DHT22;4117;53.622;9.958;2023-02-07T14:31:06;1.80;4.10
8152;DHT22;4117;53.622;9.958;2023-02-07T14:33:34;1.80;4.50
8152;DHT22;4117;53.622;9.958;2023-02-07T14:36:27;1.80;5.50
8152;DHT22;4117;53.622;9.958;2023-02-07T14:39:21;1.80;4.70
8152;DHT22;4117;53.622;9.958;2023-02-07T14:41:51;1.80;5.20
8152;DHT22;4117;53.622;9.958;2023-02-07T14:44:23;1.80;6.10
8152;DHT22;4117;53.622;9.958;2023-02-07T14:46:54;1.80;4.40
8152;DHT22;4117;53.622;9.958;2023-02-07T14:49:27;1.80;6.10
8152;DHT22;4117;53.622;9.958;2023-02-07T14:51:58;1.80;5.50
8152;DHT22;4117;53.622;9.958;2023-02-07T14:54:29;1.80;5.30
8152;DHT22;4117;53.622;9.958;2023-02-07T14:57:05;1.80;5.10
8152;DHT22;4117;53.622;9.958;2023-02-07T14:59:37;1.80;5.00
8152;DHT22;4117;53.622;9.958;2023-02-07T15:02:33;1.80;7.70
8152;DHT22;4117;53.622;9.958;2023-02-07T15:05:17;1.70;4.80
8152;DHT22;4117;53.622;9.958;2023-02-07T15:07:46;1.80;3.00
8152;DHT22;4117;53.622;9.958;2023-02-07T15:10:15;1.80;6.80
8152;DHT22;4117;53.622;9.958;2023-02-07T15:12:42;1.70;4.80
8152;DHT22;4117;53.622;9.958;2023-02-07T15:15:17;1.80;3.80
8152;DHT22;4117;53.622;9.958;2023-02-07T15:17:47;1.80;5.10
8152;DHT22;4117;53.622;9.958;2023-02-07T15:20:15;1.70;6.40
8152;DHT22;4117;53.622;9.958;2023-02-07T15:22:47;1.80;7.50
8152;DHT22;4117;53.622;9.958;2023-02-07T15:25:14;1.70;6.70
8152;DHT22;4117;53.622;9.958;2023-02-07T15:27:42;1.70;5.20
8152;DHT22;4117;53.622;9.958;2023-02-07T15:30:23;1.70;5.60
8152;DHT22;4117;53.622;9.958;2023-02-07T15:32:51;1.70;5.90
8152;DHT22;4117;53.622;9.958;2023-02-07T15:35:20;1.70;5.80
8152;DHT22;4117;53.622;9.958;2023-02-07T15:37:48;1.70;7.40
8152;DHT22;4117;53.622;9.958;2023-02-07T15:40:17;1.70;7.60
8152;DHT22;4117;53.622;9.958;2023-02-07T15:42:51;1.60;6.30
8152;DHT22;4117;53.622;9.958;2023-02-07T15:45:23;1.60;6.80
8152;DHT22;4117;53.622;9.958;2023-02-07T15:47:58;1.60;7.10
8152;DHT22;4117;53.622;9.958;2023-02-07T15:50:26;1.50;7.30
8152;DHT22;4117;53.622;9.958;2023-02-07T15:52:56;1.50;9.10
8152;DHT22;4117;53.622;9.958;2023-02-07T15:55:29;1.40;8.40
8152;DHT22;4117;53.622;9.958;2023-02-07T15:57:57;1.40;8.20
8152;DHT22;4117;53.622;9.958;2023-02-07T16:00:27;1.30;9.70
8152;DHT22;4117;53.622;9.958;2023-02-07T16:02:58;1.30;10.00
8152;DHT22;4117;53.622;9.958;2023-02-07T16:05:28;1.20;11.00
8152;DHT22;4117;53.622;9.958;2023-02-07T16:07:56;1.20;11.30
8152;DHT22;4117;53.622;9.958;2023-02-07T16:10:35;1.10;11.30
8152;DHT22;4117;53.622;9.958;2023-02-07T16:13:13;1.00;11.20
8152;DHT22;4117;53.622;9.958;2023-02-07T16:15:53;1.00;11.50
8152;DHT22;4117;53.622;9.958;2023-02-07T16:18:35;1.00;10.00
8152;DHT22;4117;53.622;9.958;2023-02-07T16:21:03;0.90;11.70
8152;DHT22;4117;53.622;9.958;2023-02-07T16:23:30;0.80;11.30
8152;DHT22;4117;53.622;9.958;2023-02-07T16:25:58;0.80;11.10
8152;DHT22;4117;53.622;9.958;2023-02-07T16:28:27;0.70;10.80
8152;DHT22;4117;53.622;9.958;2023-02-07T16:30:55;0.70;11.30
8152;DHT22;4117;53.622;9.958;2023-02-07T16:33:22;0.60;13.90
8152;DHT22;4117;53.622;9.958;2023-02-07T16:35:51;0.60;10.90
8152;DHT22;4117;53.622;9.958;2023-02-07T16:38:17;0.50;14.00
8152;DHT22;4117;53.622;9.958;2023-02-07T16:40:44;0.50;12.40
8152;DHT22;4117;53.622;9.958;2023-02-07T16:43:26;0.40;15.60
8152;DHT22;4117;53.622;9.958;2023-02-07T16:45:55;0.40;11.60